sensor_id;sensor_type;location;lat;lon;timestamp;temperature;humidity
57030;DHT22;42920;45.306;20.448;2024-02-26T00:01:51;307.90;2304.00
57030;DHT22;42920;45.306;20.448;2024-02-26T00:04:17;307.80;2304.00
57030;DHT22;42920;45.306;20.448;2024-02-26T00:06:43;307.80;2304.00
57030;DHT22;42920;45.306;20.448;2024-02-26T00:09:09;307.80;2304.00
57030;DHT22;42920;45.306;20.448;2024-02-26T00:11:38;307.80;2304.00
57030;DHT22;42920;45.306;20.448;2024-02-26T00:14:03;307.80;2304.00
57030;DHT22;42920;45.306;20.448;2024-02-26T00:16:29;307.80;2304.00
57030;DHT22;42920;45.306;20.448;2024-02-26T00:18:55;307.80;2304.00
57030;DHT22;42920;45.306;20.448;2024-02-26T00:21:20;307.80;2304.00
57030;DHT22;42920;45.306;20.448;2024-02-26T00:23:46;307.80;2304.00
57030;DHT22;42920;45.306;20.448;2024-02-26T00:26:12;307.80;2304.00
57030;DHT22;42920;45.306;20.448;2024-02-26T00:28:38;307.80;2304.00
57030;DHT22;42920;45.306;20.448;2024-02-26T00:31:03;307.70;2304.00
57030;DHT22;42920;45.306;20.448;2024-02-26T00:33:29;307.70;2304.00
57030;DHT22;42920;45.306;20.448;2024-02-26T00:35:54;307.70;2304.00
57030;DHT22;42920;45.306;20.448;2024-02-26T00:38:20;307.70;2304.00
57030;DHT22;42920;45.306;20.448;2024-02-26T00:40:46;307.70;2304.00
57030;DHT22;42920;45.306;20.448;2024-02-26T00:43:12;307.70;2304.00
57030;DHT22;42920;45.306;20.448;2024-02-26T00:45:37;307.70;2304.00
57030;DHT22;42920;45.306;20.448;2024-02-26T00:48:03;307.60;2304.00
57030;DHT22;42920;45.306;20.448;2024-02-26T00:50:32;307.60;2304.00
57030;DHT22;42920;45.306;20.448;2024-02-26T00:52:59;307.60;2304.00
57030;DHT22;42920;45.306;20.448;2024-02-26T00:55:24;307.60;2304.00
57030;DHT22;42920;45.306;20.448;2024-02-26T00:57:50;307.60;2304.00
57030;DHT22;42920;45.306;20.448;2024-02-26T01:00:16;307.60;2304.00
57030;DHT22;42920;45.306;20.448;2024-02-26T01:02:41;307.60;2304.00
57030;DHT22;42920;45.306;20.448;2024-02-26T01:05:07;307.60;2304.00
57030;DHT22;42920;45.306;20.448;2024-02-26T01:07:34;307.60;2304.00
57030;DHT22;42920;45.306;20.448;2024-02-26T01:10:01;307.60;2304.00
57030;DHT22;42920;45.306;20.448;2024-02-26T01:12:27;307.60;2304.00
57030;DHT22;42920;45.306;20.448;2024-02-26T01:14:53;307.60;2304.00
57030;DHT22;42920;45.306;20.448;2024-02-26T01:17:18;307.60;2304.00
57030;DHT22;42920;45.306;20.448;2024-02-26T01:19:44;307.60;2304.00
57030;DHT22;42920;45.306;20.448;2024-02-26T01:22:10;307.60;2304.00
57030;DHT22;42920;45.306;20.448;2024-02-26T01:24:35;307.60;2304.00
57030;DHT22;42920;45.306;20.448;2024-02-26T01:27:01;307.60;2304.00
57030;DHT22;42920;45.306;20.448;2024-02-26T01:29:26;307.60;2304.00
57030;DHT22;42920;45.306;20.448;2024-02-26T01:31:52;307.60;2304.00
57030;DHT22;42920;45.306;20.448;2024-02-26T01:34:17;307.60;2304.00
57030;DHT22;42920;45.306;20.448;2024-02-26T01:36:43;307.60;2304.00
57030;DHT22;42920;45.306;20.448;2024-02-26T01:39:09;307.60;2304.00
57030;DHT22;42920;45.306;20.448;2024-02-26T01:41:38;307.50;2304.00
57030;DHT22;42920;45.306;20.448;2024-02-26T01:44:04;307.50;2304.00
57030;DHT22;42920;45.306;20.448;2024-02-26T01:46:29;307.40;2304.00
57030;DHT22;42920;45.306;20.448;2024-02-26T01:48:55;307.40;2304.00
57030;DHT22;42920;45.306;20.448;2024-02-26T01:51:21;307.40;2304.00
57030;DHT22;42920;45.306;20.448;2024-02-26T01:53:47;307.40;2304.00
57030;DHT22;42920;45.306;20.448;2024-02-26T01:56:13;307.40;2304.00
57030;DHT22;42920;45.306;20.448;2024-02-26T01:58:39;307.40;2304.00
57030;DHT22;42920;45.306;20.448;2024-02-26T02:01:06;307.30;2304.00
57030;DHT22;42920;45.306;20.448;2024-02-26T02:03:33;307.30;2304.00
57030;DHT22;42920;45.306;20.448;2024-02-26T02:05:59;307.20;2304.00
57030;DHT22;42920;45.306;20.448;2024-02-26T02:08:24;282.50;2278.40
57030;DHT22;42920;45.306;20.448;2024-02-26T02:10:50;282.50;2278.40
57030;DHT22;42920;45.306;20.448;2024-02-26T02:13:16;307.50;2304.00
57030;DHT22;42920;45.306;20.448;2024-02-26T02:15:41;282.40;2278.40
57030;DHT22;42920;45.306;20.448;2024-02-26T02:21:15;282.30;2278.40
57030;DHT22;42920;45.306;20.448;2024-02-26T02:23:41;282.20;2124.80
57030;DHT22;42920;45.306;20.448;2024-02-26T02:26:11;282.20;2252.80
57030;DHT22;42920;45.306;20.448;2024-02-26T02:28:37;282.20;2278.40
57030;DHT22;42920;45.306;20.448;2024-02-26T02:31:03;282.20;2278.40
57030;DHT22;42920;45.306;20.448;2024-02-26T02:33:29;282.10;2278.40
57030;DHT22;42920;45.306;20.448;2024-02-26T02:35:55;282.10;2278.40
57030;DHT22;42920;45.306;20.448;2024-02-26T02:38:20;282.10;2278.40
57030;DHT22;42920;45.306;20.448;2024-02-26T02:40:46;282.10;2278.40
57030;DHT22;42920;45.306;20.448;2024-02-26T02:43:12;282.00;2278.40
57030;DHT22;42920;45.306;20.448;2024-02-26T02:45:37;282.00;2278.40
57030;DHT22;42920;45.306;20.448;2024-02-26T02:48:03;282.00;2278.40
57030;DHT22;42920;45.306;20.448;2024-02-26T02:50:29;282.10;2278.40
57030;DHT22;42920;45.306;20.448;2024-02-26T02:52:54;282.10;2278.40
57030;DHT22;42920;45.306;20.448;2024-02-26T02:55:20;282.10;2278.40
57030;DHT22;42920;45.306;20.448;2024-02-26T02:57:45;282.20;2278.40
57030;DHT22;42920;45.306;20.448;2024-02-26T03:00:11;282.20;2278.40
57030;DHT22;42920;45.306;20.448;2024-02-26T03:02:37;282.20;2227.20
57030;DHT22;42920;45.306;20.448;2024-02-26T03:05:03;282.20;2278.40
57030;DHT22;42920;45.306;20.448;2024-02-26T03:07:29;282.20;2073.60
57030;DHT22;42920;45.306;20.448;2024-02-26T03:09:54;282.20;2201.60
57030;DHT22;42920;45.306;20.448;2024-02-26T03:12:20;282.20;1945.60
57030;DHT22;42920;45.306;20.448;2024-02-26T03:14:46;282.30;2278.40
57030;DHT22;42920;45.306;20.448;2024-02-26T03:17:11;282.20;2278.40
57030;DHT22;42920;45.306;20.448;2024-02-26T03:19:37;282.20;2278.40
57030;DHT22;42920;45.306;20.448;2024-02-26T03:22:03;282.20;1894.40
57030;DHT22;42920;45.306;20.448;2024-02-26T03:24:28;282.10;1945.60
57030;DHT22;42920;45.306;20.448;2024-02-26T03:26:54;282.10;1945.60
57030;DHT22;42920;45.306;20.448;2024-02-26T03:29:20;282.10;2278.40
57030;DHT22;42920;45.306;20.448;2024-02-26T03:31:45;282.10;1996.80
57030;DHT22;42920;45.306;20.448;2024-02-26T03:34:11;282.10;2278.40
57030;DHT22;42920;45.306;20.448;2024-02-26T03:36:38;282.10;2278.40
57030;DHT22;42920;45.306;20.448;2024-02-26T03:39:03;282.10;2278.40
57030;DHT22;42920;45.306;20.448;2024-02-26T03:41:33;282.10;2278.40
57030;DHT22;42920;45.306;20.448;2024-02-26T03:43:58;282.10;1894.40
57030;DHT22;42920;45.306;20.448;2024-02-26T03:46:24;282.10;2022.40
57030;DHT22;42920;45.306;20.448;2024-02-26T03:48:50;282.00;2073.60
57030;DHT22;42920;45.306;20.448;2024-02-26T03:51:15;282.00;2048.00
57030;DHT22;42920;45.306;20.448;2024-02-26T03:53:41;282.10;1971.20
57030;DHT22;42920;45.306;20.448;2024-02-26T03:56:07;282.10;2278.40
57030;DHT22;42920;45.306;20.448;2024-02-26T03:58:32;282.10;2278.40
57030;DHT22;42920;45.306;20.448;2024-02-26T04:01:01;282.10;1945.60
57030;DHT22;42920;45.306;20.448;2024-02-26T04:03:26;282.10;2278.40
57030;DHT22;42920;45.306;20.448;2024-02-26T04:05:52;282.10;2278.40
57030;DHT22;42920;45.306;20.448;2024-02-26T04:08:17;282.10;1894.40
57030;DHT22;42920;45.306;20.448;2024-02-26T04:10:43;282.20;1996.80
57030;DHT22;42920;45.306;20.448;2024-02-26T04:13:09;282.20;2048.00
57030;DHT22;42920;45.306;20.448;2024-02-26T04:15:34;282.20;2048.00
57030;DHT22;42920;45.306;20.448;2024-02-26T04:18:00;282.20;2073.60
57030;DHT22;42920;45.306;20.448;2024-02-26T04:20:25;282.30;2099.20
57030;DHT22;42920;45.306;20.448;2024-02-26T04:22:51;282.30;2022.40
57030;DHT22;42920;45.306;20.448;2024-02-26T04:25:16;282.40;2073.60
57030;DHT22;42920;45.306;20.448;2024-02-26T04:27:42;282.40;1996.80
57030;DHT22;42920;45.306;20.448;2024-02-26T04:30:08;282.40;2278.40
57030;DHT22;42920;45.306;20.448;2024-02-26T04:32:34;282.50;2278.40
57030;DHT22;42920;45.306;20.448;2024-02-26T04:35:03;282.50;2278.40
57030;DHT22;42920;45.306;20.448;2024-02-26T04:37:28;282.50;2278.40
57030;DHT22;42920;45.306;20.448;2024-02-26T04:40:00;282.50;2278.40
57030;DHT22;42920;45.306;20.448;2024-02-26T04:42:26;282.50;2278.40
57030;DHT22;42920;45.306;20.448;2024-02-26T04:44:52;282.50;2278.40
57030;DHT22;42920;45.306;20.448;2024-02-26T04:47:17;307.20;2304.00
57030;DHT22;42920;45.306;20.448;2024-02-26T04:49:43;307.20;2304.00
57030;DHT22;42920;45.306;20.448;2024-02-26T04:52:08;307.20;2304.00
57030;DHT22;42920;45.306;20.448;2024-02-26T04:54:34;307.20;2304.00
57030;DHT22;42920;45.306;20.448;2024-02-26T04:57:00;307.20;2304.00
57030;DHT22;42920;45.306;20.448;2024-02-26T04:59:25;307.20;2304.00
57030;DHT22;42920;45.306;20.448;2024-02-26T05:01:51;282.50;2278.40
57030;DHT22;42920;45.306;20.448;2024-02-26T05:04:18;282.50;2278.40
57030;DHT22;42920;45.306;20.448;2024-02-26T05:06:43;307.20;2304.00
57030;DHT22;42920;45.306;20.448;2024-02-26T05:09:09;307.20;2304.00
57030;DHT22;42920;45.306;20.448;2024-02-26T05:11:34;307.20;2304.00
57030;DHT22;42920;45.306;20.448;2024-02-26T05:14:00;307.20;2304.00
57030;DHT22;42920;45.306;20.448;2024-02-26T05:16:26;307.20;2304.00
57030;DHT22;42920;45.306;20.448;2024-02-26T05:18:52;307.20;2304.00
57030;DHT22;42920;45.306;20.448;2024-02-26T05:21:18;307.20;2304.00
57030;DHT22;42920;45.306;20.448;2024-02-26T05:23:44;307.20;2304.00
57030;DHT22;42920;45.306;20.448;2024-02-26T05:26:10;307.20;2304.00
57030;DHT22;42920;45.306;20.448;2024-02-26T05:28:36;307.20;2304.00
57030;DHT22;42920;45.306;20.448;2024-02-26T05:31:04;307.20;2304.00
57030;DHT22;42920;45.306;20.448;2024-02-26T05:33:30;307.30;2304.00
57030;DHT22;42920;45.306;20.448;2024-02-26T05:35:55;307.30;2304.00
57030;DHT22;42920;45.306;20.448;2024-02-26T05:38:21;307.30;2304.00
57030;DHT22;42920;45.306;20.448;2024-02-26T05:40:47;307.30;2304.00
57030;DHT22;42920;45.306;20.448;2024-02-26T05:43:12;307.40;2304.00
57030;DHT22;42920;45.306;20.448;2024-02-26T05:45:40;307.40;2304.00
57030;DHT22;42920;45.306;20.448;2024-02-26T05:48:06;307.40;2304.00
57030;DHT22;42920;45.306;20.448;2024-02-26T05:50:32;307.40;2304.00
57030;DHT22;42920;45.306;20.448;2024-02-26T05:52:57;307.50;2304.00
57030;DHT22;42920;45.306;20.448;2024-02-26T05:55:23;307.50;2304.00
57030;DHT22;42920;45.306;20.448;2024-02-26T05:57:49;307.60;2304.00
57030;DHT22;42920;45.306;20.448;2024-02-26T06:00:15;307.60;2304.00
57030;DHT22;42920;45.306;20.448;2024-02-26T06:02:40;307.60;2304.00
57030;DHT22;42920;45.306;20.448;2024-02-26T06:05:06;307.60;2304.00
57030;DHT22;42920;45.306;20.448;2024-02-26T06:07:34;307.70;2304.00
57030;DHT22;42920;45.306;20.448;2024-02-26T06:10:00;307.70;2304.00
57030;DHT22;42920;45.306;20.448;2024-02-26T06:12:26;307.70;2304.00
57030;DHT22;42920;45.306;20.448;2024-02-26T06:14:53;307.80;2304.00
57030;DHT22;42920;45.306;20.448;2024-02-26T06:17:19;307.70;2304.00
57030;DHT22;42920;45.306;20.448;2024-02-26T06:19:45;307.80;2304.00
57030;DHT22;42920;45.306;20.448;2024-02-26T06:22:10;307.80;2304.00
57030;DHT22;42920;45.306;20.448;2024-02-26T06:24:36;307.80;2304.00
57030;DHT22;42920;45.306;20.448;2024-02-26T06:27:02;307.80;2304.00
57030;DHT22;42920;45.306;20.448;2024-02-26T06:29:28;307.80;2304.00
57030;DHT22;42920;45.306;20.448;2024-02-26T06:31:54;307.80;2304.00
57030;DHT22;42920;45.306;20.448;2024-02-26T06:34:19;307.80;2304.00
57030;DHT22;42920;45.306;20.448;2024-02-26T06:36:45;307.80;2304.00
57030;DHT22;42920;45.306;20.448;2024-02-26T06:39:11;307.90;2304.00
57030;DHT22;42920;45.306;20.448;2024-02-26T06:41:38;307.90;2304.00
57030;DHT22;42920;45.306;20.448;2024-02-26T06:44:04;307.90;2304.00
57030;DHT22;42920;45.306;20.448;2024-02-26T06:46:30;308.00;2304.00
57030;DHT22;42920;45.306;20.448;2024-02-26T06:48:56;308.00;2304.00
57030;DHT22;42920;45.306;20.448;2024-02-26T06:51:22;308.10;2304.00
57030;DHT22;42920;45.306;20.448;2024-02-26T06:53:47;332.90;2329.60
57030;DHT22;42920;45.306;20.448;2024-02-26T06:56:13;308.00;2304.00
57030;DHT22;42920;45.306;20.448;2024-02-26T06:58:39;308.10;2304.00
57030;DHT22;42920;45.306;20.448;2024-02-26T07:01:04;332.80;2329.60
57030;DHT22;42920;45.306;20.448;2024-02-26T07:03:30;332.80;2329.60
57030;DHT22;42920;45.306;20.448;2024-02-26T07:05:55;332.90;2329.60
57030;DHT22;42920;45.306;20.448;2024-02-26T07:08:21;332.90;2329.60
57030;DHT22;42920;45.306;20.448;2024-02-26T07:10:47;332.90;2329.60
57030;DHT22;42920;45.306;20.448;2024-02-26T07:13:12;332.90;2329.60
57030;DHT22;42920;45.306;20.448;2024-02-26T07:15:38;332.90;2329.60
57030;DHT22;42920;45.306;20.448;2024-02-26T07:18:03;332.90;2329.60
57030;DHT22;42920;45.306;20.448;2024-02-26T07:20:29;333.00;2329.60
57030;DHT22;42920;45.306;20.448;2024-02-26T07:22:55;333.00;2329.60
57030;DHT22;42920;45.306;20.448;2024-02-26T07:25:21;332.90;2329.60
57030;DHT22;42920;45.306;20.448;2024-02-26T07:27:47;333.00;2329.60
57030;DHT22;42920;45.306;20.448;2024-02-26T07:30:12;333.00;2329.60
57030;DHT22;42920;45.306;20.448;2024-02-26T07:32:38;333.10;2329.60
57030;DHT22;42920;45.306;20.448;2024-02-26T07:35:04;333.20;2329.60
57030;DHT22;42920;45.306;20.448;2024-02-26T07:37:30;333.20;2329.60
57030;DHT22;42920;45.306;20.448;2024-02-26T07:39:56;333.20;2329.60
57030;DHT22;42920;45.306;20.448;2024-02-26T07:42:21;333.20;2329.60
57030;DHT22;42920;45.306;20.448;2024-02-26T07:44:47;333.20;2329.60
57030;DHT22;42920;45.306;20.448;2024-02-26T07:47:12;333.30;2329.60
57030;DHT22;42920;45.306;20.448;2024-02-26T07:49:39;333.30;2329.60
57030;DHT22;42920;45.306;20.448;2024-02-26T07:54:30;333.40;2329.60
57030;DHT22;42920;45.306;20.448;2024-02-26T07:56:56;333.60;2329.60
57030;DHT22;42920;45.306;20.448;2024-02-26T07:59:21;333.60;2329.60
57030;DHT22;42920;45.306;20.448;2024-02-26T08:01:50;333.70;2329.60
57030;DHT22;42920;45.306;20.448;2024-02-26T08:04:16;358.40;2329.60
57030;DHT22;42920;45.306;20.448;2024-02-26T08:06:42;358.40;2329.60
57030;DHT22;42920;45.306;20.448;2024-02-26T08:09:08;358.50;2329.60
57030;DHT22;42920;45.306;20.448;2024-02-26T08:11:34;358.60;2329.60
57030;DHT22;42920;45.306;20.448;2024-02-26T08:14:01;358.70;2329.60
57030;DHT22;42920;45.306;20.448;2024-02-26T08:16:26;358.70;2329.60
57030;DHT22;42920;45.306;20.448;2024-02-26T08:18:52;358.80;2329.60
57030;DHT22;42920;45.306;20.448;2024-02-26T08:21:18;358.90;2329.60
57030;DHT22;42920;45.306;20.448;2024-02-26T08:23:44;359.00;2329.60
57030;DHT22;42920;45.306;20.448;2024-02-26T08:26:09;359.00;2329.60
57030;DHT22;42920;45.306;20.448;2024-02-26T08:28:36;359.10;2329.60
57030;DHT22;42920;45.306;20.448;2024-02-26T08:31:02;384.00;2329.60
57030;DHT22;42920;45.306;20.448;2024-02-26T08:33:28;359.20;2329.60
57030;DHT22;42920;45.306;20.448;2024-02-26T08:35:54;359.30;2329.60
57030;DHT22;42920;45.306;20.448;2024-02-26T08:38:19;359.30;2329.60
57030;DHT22;42920;45.306;20.448;2024-02-26T08:40:45;384.40;2329.60
57030;DHT22;42920;45.306;20.448;2024-02-26T08:43:10;384.10;2329.60
57030;DHT22;42920;45.306;20.448;2024-02-26T08:45:36;384.20;2329.60
57030;DHT22;42920;45.306;20.448;2024-02-26T08:48:02;384.40;2329.60
57030;DHT22;42920;45.306;20.448;2024-02-26T08:50:28;384.60;2329.60
57030;DHT22;42920;45.306;20.448;2024-02-26T08:52:54;384.80;2329.60
57030;DHT22;42920;45.306;20.448;2024-02-26T08:55:19;384.90;2329.60
57030;DHT22;42920;45.306;20.448;2024-02-26T08:57:45;384.90;2329.60
57030;DHT22;42920;45.306;20.448;2024-02-26T09:00:10;409.60;2355.20
57030;DHT22;42920;45.306;20.448;2024-02-26T09:02:36;409.70;2355.20
57030;DHT22;42920;45.306;20.448;2024-02-26T09:05:04;409.90;2355.20
57030;DHT22;42920;45.306;20.448;2024-02-26T09:07:31;410.10;2355.20
57030;DHT22;42920;45.306;20.448;2024-02-26T09:09:56;435.20;2355.20
57030;DHT22;42920;45.306;20.448;2024-02-26T09:12:22;435.50;2355.20
57030;DHT22;42920;45.306;20.448;2024-02-26T09:14:48;435.60;2355.20
57030;DHT22;42920;45.306;20.448;2024-02-26T09:17:13;435.60;2355.20
57030;DHT22;42920;45.306;20.448;2024-02-26T09:19:39;435.70;2355.20
57030;DHT22;42920;45.306;20.448;2024-02-26T09:22:04;435.80;2355.20
57030;DHT22;42920;45.306;20.448;2024-02-26T09:24:30;436.00;2355.20
57030;DHT22;42920;45.306;20.448;2024-02-26T09:26:56;436.00;2355.20
57030;DHT22;42920;45.306;20.448;2024-02-26T09:29:21;436.10;2355.20
57030;DHT22;42920;45.306;20.448;2024-02-26T09:31:47;460.80;2380.80
57030;DHT22;42920;45.306;20.448;2024-02-26T09:34:13;460.90;2380.80
57030;DHT22;42920;45.306;20.448;2024-02-26T09:36:39;461.00;2380.80
57030;DHT22;42920;45.306;20.448;2024-02-26T09:39:04;461.10;2380.80
57030;DHT22;42920;45.306;20.448;2024-02-26T09:41:30;461.40;2380.80
57030;DHT22;42920;45.306;20.448;2024-02-26T09:43:57;461.40;2380.80
57030;DHT22;42920;45.306;20.448;2024-02-26T09:46:23;461.70;2380.80
57030;DHT22;42920;45.306;20.448;2024-02-26T09:48:49;486.50;2380.80
57030;DHT22;42920;45.306;20.448;2024-02-26T09:51:15;486.80;2329.60
57030;DHT22;42920;45.306;20.448;2024-02-26T09:53:43;487.00;2355.20
57030;DHT22;42920;45.306;20.448;2024-02-26T09:56:09;487.00;2304.00
57030;DHT22;42920;45.306;20.448;2024-02-26T09:58:36;487.00;2252.80
57030;DHT22;42920;45.306;20.448;2024-02-26T10:01:03;487.10;2252.80
57030;DHT22;42920;45.306;20.448;2024-02-26T10:03:40;487.10;2176.00
57030;DHT22;42920;45.306;20.448;2024-02-26T10:06:07;512.10;2227.20
57030;DHT22;42920;45.306;20.448;2024-02-26T10:08:34;512.50;2073.60
57030;DHT22;42920;45.306;20.448;2024-02-26T10:11:00;512.40;2048.00
57030;DHT22;42920;45.306;20.448;2024-02-26T10:13:26;512.60;2124.80
57030;DHT22;42920;45.306;20.448;2024-02-26T10:15:52;512.90;2048.00
57030;DHT22;42920;45.306;20.448;2024-02-26T10:18:17;537.60;2048.00
57030;DHT22;42920;45.306;20.448;2024-02-26T10:20:58;537.70;1971.20
57030;DHT22;42920;45.306;20.448;2024-02-26T10:23:25;512.80;1920.00
57030;DHT22;42920;45.306;20.448;2024-02-26T10:25:54;512.90;1945.60
57030;DHT22;42920;45.306;20.448;2024-02-26T10:28:20;537.70;1945.60
57030;DHT22;42920;45.306;20.448;2024-02-26T10:30:46;537.70;1971.20
57030;DHT22;42920;45.306;20.448;2024-02-26T10:33:12;512.90;1894.40
57030;DHT22;42920;45.306;20.448;2024-02-26T10:35:38;537.60;1920.00
57030;DHT22;42920;45.306;20.448;2024-02-26T10:38:08;512.90;1868.80
57030;DHT22;42920;45.306;20.448;2024-02-26T10:40:34;537.80;1868.80
57030;DHT22;42920;45.306;20.448;2024-02-26T10:43:00;537.90;1868.80
57030;DHT22;42920;45.306;20.448;2024-02-26T10:45:26;538.30;1792.00
57030;DHT22;42920;45.306;20.448;2024-02-26T10:47:51;538.30;1843.20
57030;DHT22;42920;45.306;20.448;2024-02-26T10:50:17;538.10;1766.40
57030;DHT22;42920;45.306;20.448;2024-02-26T10:52:43;538.10;1792.00
57030;DHT22;42920;45.306;20.448;2024-02-26T10:55:11;538.40;1766.40
57030;DHT22;42920;45.306;20.448;2024-02-26T10:57:39;538.50;1740.80
57030;DHT22;42920;45.306;20.448;2024-02-26T11:00:05;563.20;1766.40
57030;DHT22;42920;45.306;20.448;2024-02-26T11:02:33;563.20;1792.00
57030;DHT22;42920;45.306;20.448;2024-02-26T11:07:29;563.80;1689.60
57030;DHT22;42920;45.306;20.448;2024-02-26T11:09:55;563.60;1664.00
57030;DHT22;42920;45.306;20.448;2024-02-26T11:12:21;563.80;1689.60
57030;DHT22;42920;45.306;20.448;2024-02-26T11:14:47;563.80;1664.00
57030;DHT22;42920;45.306;20.448;2024-02-26T11:17:14;563.60;1664.00
57030;DHT22;42920;45.306;20.448;2024-02-26T11:19:42;563.50;1689.60
57030;DHT22;42920;45.306;20.448;2024-02-26T11:22:08;563.40;1638.40
57030;DHT22;42920;45.306;20.448;2024-02-26T11:24:33;563.20;1664.00
57030;DHT22;42920;45.306;20.448;2024-02-26T11:27:01;563.40;1638.40
57030;DHT22;42920;45.306;20.448;2024-02-26T11:29:29;563.20;1664.00
57030;DHT22;42920;45.306;20.448;2024-02-26T11:31:55;563.40;1664.00
57030;DHT22;42920;45.306;20.448;2024-02-26T11:34:21;563.50;1612.80
57030;DHT22;42920;45.306;20.448;2024-02-26T11:36:46;563.70;1638.40
57030;DHT22;42920;45.306;20.448;2024-02-26T11:39:12;588.80;1587.20
57030;DHT22;42920;45.306;20.448;2024-02-26T11:41:40;564.00;1561.60
57030;DHT22;42920;45.306;20.448;2024-02-26T11:44:06;564.10;1612.80
57030;DHT22;42920;45.306;20.448;2024-02-26T11:46:33;564.00;1612.80
57030;DHT22;42920;45.306;20.448;2024-02-26T11:51:43;564.00;1587.20
57030;DHT22;42920;45.306;20.448;2024-02-26T11:54:08;588.80;1612.80
57030;DHT22;42920;45.306;20.448;2024-02-26T11:56:34;564.10;1561.60
57030;DHT22;42920;45.306;20.448;2024-02-26T11:59:01;564.00;1536.00
57030;DHT22;42920;45.306;20.448;2024-02-26T12:04:02;564.10;1587.20
57030;DHT22;42920;45.306;20.448;2024-02-26T12:06:29;564.10;1561.60
57030;DHT22;42920;45.306;20.448;2024-02-26T12:08:55;588.80;1536.00
57030;DHT22;42920;45.306;20.448;2024-02-26T12:11:21;588.80;1536.00
57030;DHT22;42920;45.306;20.448;2024-02-26T12:13:47;588.90;1510.40
57030;DHT22;42920;45.306;20.448;2024-02-26T12:16:34;564.10;1536.00
57030;DHT22;42920;45.306;20.448;2024-02-26T12:18:59;588.90;1536.00
57030;DHT22;42920;45.306;20.448;2024-02-26T12:21:25;588.80;1510.40
57030;DHT22;42920;45.306;20.448;2024-02-26T12:23:51;588.80;1536.00
57030;DHT22;42920;45.306;20.448;2024-02-26T12:26:16;588.80;1510.40
57030;DHT22;42920;45.306;20.448;2024-02-26T12:28:42;564.10;1484.80
57030;DHT22;42920;45.306;20.448;2024-02-26T12:31:08;564.10;1536.00
57030;DHT22;42920;45.306;20.448;2024-02-26T12:33:34;588.80;1510.40
57030;DHT22;42920;45.306;20.448;2024-02-26T12:35:59;589.10;1510.40
57030;DHT22;42920;45.306;20.448;2024-02-26T12:38:26;589.10;1510.40
57030;DHT22;42920;45.306;20.448;2024-02-26T12:40:52;588.90;1510.40
57030;DHT22;42920;45.306;20.448;2024-02-26T12:43:18;589.00;1484.80
57030;DHT22;42920;45.306;20.448;2024-02-26T12:45:44;589.00;1484.80
57030;DHT22;42920;45.306;20.448;2024-02-26T12:48:12;589.00;1510.40
57030;DHT22;42920;45.306;20.448;2024-02-26T12:50:37;588.80;1510.40
57030;DHT22;42920;45.306;20.448;2024-02-26T12:53:03;589.00;1484.80
57030;DHT22;42920;45.306;20.448;2024-02-26T12:55:29;588.80;1484.80
57030;DHT22;42920;45.306;20.448;2024-02-26T12:57:55;589.50;1510.40
57030;DHT22;42920;45.306;20.448;2024-02-26T13:00:24;589.00;1510.40
57030;DHT22;42920;45.306;20.448;2024-02-26T13:02:50;588.90;1433.60
57030;DHT22;42920;45.306;20.448;2024-02-26T13:05:18;589.20;1459.20
57030;DHT22;42920;45.306;20.448;2024-02-26T13:07:45;589.20;1459.20
57030;DHT22;42920;45.306;20.448;2024-02-26T13:10:12;589.20;1459.20
57030;DHT22;42920;45.306;20.448;2024-02-26T13:12:45;563.80;1433.60
57030;DHT22;42920;45.306;20.448;2024-02-26T13:15:14;589.30;1408.00
57030;DHT22;42920;45.306;20.448;2024-02-26T13:17:39;588.90;1459.20
57030;DHT22;42920;45.306;20.448;2024-02-26T13:20:05;588.90;1459.20
57030;DHT22;42920;45.306;20.448;2024-02-26T13:22:31;589.00;1433.60
57030;DHT22;42920;45.306;20.448;2024-02-26T13:24:59;589.00;1484.80
57030;DHT22;42920;45.306;20.448;2024-02-26T13:27:25;564.10;1484.80
57030;DHT22;42920;45.306;20.448;2024-02-26T13:30:10;588.80;1459.20
57030;DHT22;42920;45.306;20.448;2024-02-26T13:32:36;564.00;1459.20
57030;DHT22;42920;45.306;20.448;2024-02-26T13:35:08;563.60;1459.20
57030;DHT22;42920;45.306;20.448;2024-02-26T13:37:37;563.60;1510.40
57030;DHT22;42920;45.306;20.448;2024-02-26T13:40:07;563.30;1484.80
57030;DHT22;42920;45.306;20.448;2024-02-26T13:42:34;563.50;1510.40
57030;DHT22;42920;45.306;20.448;2024-02-26T13:44:59;563.60;1510.40
57030;DHT22;42920;45.306;20.448;2024-02-26T13:47:25;563.50;1484.80
57030;DHT22;42920;45.306;20.448;2024-02-26T13:49:51;563.40;1510.40
57030;DHT22;42920;45.306;20.448;2024-02-26T13:52:16;563.50;1536.00
57030;DHT22;42920;45.306;20.448;2024-02-26T13:54:42;563.60;1510.40
57030;DHT22;42920;45.306;20.448;2024-02-26T13:57:07;563.60;1536.00
57030;DHT22;42920;45.306;20.448;2024-02-26T13:59:34;563.50;1510.40
57030;DHT22;42920;45.306;20.448;2024-02-26T14:01:59;563.50;1510.40
57030;DHT22;42920;45.306;20.448;2024-02-26T14:04:25;563.50;1510.40
57030;DHT22;42920;45.306;20.448;2024-02-26T14:06:50;563.50;1536.00
57030;DHT22;42920;45.306;20.448;2024-02-26T14:09:16;563.30;1561.60
57030;DHT22;42920;45.306;20.448;2024-02-26T14:11:47;538.50;1510.40
57030;DHT22;42920;45.306;20.448;2024-02-26T14:14:13;538.40;1510.40
57030;DHT22;42920;45.306;20.448;2024-02-26T14:16:39;538.40;1536.00
57030;DHT22;42920;45.306;20.448;2024-02-26T14:19:04;538.30;1536.00
57030;DHT22;42920;45.306;20.448;2024-02-26T14:21:30;538.40;1510.40
57030;DHT22;42920;45.306;20.448;2024-02-26T14:23:56;538.40;1536.00
57030;DHT22;42920;45.306;20.448;2024-02-26T14:26:24;538.40;1536.00
57030;DHT22;42920;45.306;20.448;2024-02-26T14:28:50;538.10;1536.00
57030;DHT22;42920;45.306;20.448;2024-02-26T14:31:19;538.10;1587.20
57030;DHT22;42920;45.306;20.448;2024-02-26T14:33:44;538.00;1587.20
57030;DHT22;42920;45.306;20.448;2024-02-26T14:36:10;537.90;1561.60
57030;DHT22;42920;45.306;20.448;2024-02-26T14:38:36;537.90;1587.20
57030;DHT22;42920;45.306;20.448;2024-02-26T14:41:02;537.80;1638.40
57030;DHT22;42920;45.306;20.448;2024-02-26T14:43:28;537.60;1587.20